Time;durP1;ratioP1;P1;durP2;ratioP2;P2;SDS_P1;SDS_P2;PMS_P1;PMS_P2;Temp;Humidity;BMP_temperature;BMP_pressure;BME280_temperature;BME280_humidity;BME280_pressure;Samples;Min_cycle;Max_cycle;Signal;HPM_P1;HPM_P2
2020/12/31 07:43:30;;;;;;;3.05;0.20;;;16.90;68.80;;;;;;5138769;27;20361;-40
2020/12/31 07:45:56;;;;;;;0.32;0.30;;;16.80;70.50;;;;;;5118649;28;20032;-39
2020/12/31 07:48:23;;;;;;;0.22;0.20;;;16.80;69.60;;;;;;5110904;28;20054;-41
2020/12/31 07:50:58;;;;;;;0.32;0.30;;;16.80;69.50;;;;;;5122159;28;20063;-40
2020/12/31 07:53:24;;;;;;;0.73;0.30;;;16.80;69.30;;;;;;5124455;28;20440;-42
2020/12/31 07:55:51;;;;;;;0.30;0.20;;;16.90;69.30;;;;;;5111103;28;20047;-41
2020/12/31 07:58:18;;;;;;;0.68;0.17;;;16.90;69.10;;;;;;5113978;28;20106;-40
2020/12/31 08:00:43;;;;;;;0.90;0.30;;;16.90;69.20;;;;;;5111631;28;20015;-40
2020/12/31 08:03:09;;;;;;;0.20;0.20;;;16.90;69.30;;;;;;5121536;28;20456;-40
2020/12/31 08:05:35;;;;;;;0.28;0.20;;;16.90;69.20;;;;;;5123620;27;20032;-40
2020/12/31 08:08:00;;;;;;;0.20;0.20;;;16.90;69.20;;;;;;5129523;28;20110;-40
2020/12/31 08:10:26;;;;;;;0.65;0.20;;;16.90;69.20;;;;;;5121491;28;20393;-40
2020/12/31 08:13:04;;;;;;;0.85;0.40;;;16.90;69.20;;;;;;5122699;28;20027;-40
2020/12/31 08:15:31;;;;;;;0.47;0.30;;;16.90;69.10;;;;;;5123256;28;20544;-40
2020/12/31 08:17:57;;;;;;;0.65;0.30;;;16.90;69.10;;;;;;5117544;28;20034;-40
2020/12/31 08:20:32;;;;;;;0.20;0.20;;;16.90;69.00;;;;;;5081866;28;20020;-40
2020/12/31 08:23:02;;;;;;;0.85;0.30;;;16.90;68.90;;;;;;5128321;27;20051;-40
2020/12/31 08:25:33;;;;;;;0.82;0.20;;;17.00;68.90;;;;;;5121469;28;20046;-40
2020/12/31 08:28:02;;;;;;;0.20;0.20;;;17.00;69.00;;;;;;5121150;28;20024;-41
2020/12/31 08:30:27;;;;;;;0.47;0.30;;;16.90;69.20;;;;;;5115985;28;20023;-40
2020/12/31 08:32:54;;;;;;;0.20;0.20;;;17.00;68.80;;;;;;5100654;28;20042;-40
2020/12/31 08:35:22;;;;;;;0.20;0.20;;;17.00;68.70;;;;;;5126053;28;20019;-40
2020/12/31 08:37:59;;;;;;;0.50;0.30;;;16.90;68.70;;;;;;5125129;28;20026;-41
2020/12/31 08:40:25;;;;;;;0.10;0.10;;;17.00;68.60;;;;;;5108012;28;20028;-40
2020/12/31 08:42:53;;;;;;;0.30;0.30;;;16.90;68.50;;;;;;5108513;28;20474;-42
2020/12/31 08:45:24;;;;;;;0.35;0.20;;;17.00;68.60;;;;;;5120592;28;20027;-40
2020/12/31 08:47:50;;;;;;;0.17;0.17;;;16.90;68.50;;;;;;5120625;28;20558;-41
2020/12/31 08:50:15;;;;;;;0.20;0.20;;;17.00;68.60;;;;;;5121703;28;20077;-41
2020/12/31 08:52:41;;;;;;;0.28;0.28;;;17.00;68.50;;;;;;5106129;28;20414;-41
2020/12/31 08:55:08;;;;;;;0.10;0.10;;;17.00;68.40;;;;;;5105228;28;20020;-40
2020/12/31 08:57:33;;;;;;;0.28;0.28;;;17.00;68.40;;;;;;5106624;28;20053;-41
2020/12/31 08:59:59;;;;;;;0.40;0.35;;;17.00;68.50;;;;;;5087129;28;20522;-41
2020/12/31 09:02:24;;;;;;;0.30;0.30;;;17.00;68.30;;;;;;5110317;28;20556;-40
2020/12/31 09:05:12;;;;;;;0.45;0.25;;;17.00;68.30;;;;;;5111261;28;20027;-41
2020/12/31 09:07:38;;;;;;;0.28;0.28;;;17.00;68.20;;;;;;5095849;28;20032;-41
2020/12/31 09:10:11;;;;;;;0.30;0.25;;;17.00;68.30;;;;;;5102636;28;20015;-40
2020/12/31 09:12:37;;;;;;;0.43;0.40;;;17.00;68.20;;;;;;5107878;28;20032;-40
2020/12/31 09:15:05;;;;;;;1.60;0.28;;;17.00;69.00;;;;;;5085236;28;20016;-41
2020/12/31 09:17:32;;;;;;;0.68;0.30;;;17.00;68.20;;;;;;5108428;28;20033;-41
2020/12/31 09:19:58;;;;;;;0.20;0.20;;;17.00;68.20;;;;;;5106457;28;20094;-41
2020/12/31 09:22:26;;;;;;;0.50;0.45;;;17.00;68.10;;;;;;5107456;28;20028;-40
2020/12/31 09:24:52;;;;;;;0.20;0.20;;;17.10;68.10;;;;;;5102189;28;20035;-39
2020/12/31 09:27:22;;;;;;;1.40;0.20;;;17.10;68.10;;;;;;5098998;28;20459;-40
2020/12/31 09:29:54;;;;;;;0.10;0.10;;;17.10;67.90;;;;;;5106242;28;20021;-41
2020/12/31 09:32:20;;;;;;;0.28;0.20;;;17.10;67.80;;;;;;5093162;28;20040;-40
2020/12/31 09:34:45;;;;;;;4.13;2.38;;;17.10;67.50;;;;;;5106012;28;20027;-40
2020/12/31 09:37:12;;;;;;;2.13;1.92;;;17.10;67.30;;;;;;5073682;28;20515;-40
2020/12/31 09:39:38;;;;;;;4.13;3.58;;;17.10;67.50;;;;;;5043621;28;20049;-40
2020/12/31 09:42:03;;;;;;;8.43;6.30;;;17.10;67.40;;;;;;5062985;28;20087;-40
2020/12/31 09:44:29;;;;;;;7.18;4.13;;;17.20;67.10;;;;;;5052287;28;20053;-40
2020/12/31 09:46:54;;;;;;;5.03;4.63;;;17.20;67.50;;;;;;5075277;28;20051;-41
2020/12/31 09:49:20;;;;;;;6.93;4.93;;;17.20;67.30;;;;;;5071896;28;20044;-40
2020/12/31 09:51:46;;;;;;;6.95;4.60;;;17.30;67.20;;;;;;5072858;28;20120;-41
2020/12/31 09:54:12;;;;;;;11.27;6.03;;;17.20;67.00;;;;;;5064170;28;20568;-40
2020/12/31 09:56:38;;;;;;;11.52;8.68;;;17.30;66.70;;;;;;5066258;28;20040;-43
2020/12/31 09:59:03;;;;;;;128.15;58.63;;;17.40;66.80;;;;;;5075951;28;20044;-42
2020/12/31 10:01:29;;;;;;;160.85;81.18;;;17.40;66.40;;;;;;5069204;28;20148;-41
2020/12/31 10:03:54;;;;;;;76.80;41.40;;;17.40;66.20;;;;;;5072228;28;20048;-43
2020/12/31 10:06:20;;;;;;;65.07;34.67;;;17.40;66.10;;;;;;5070484;28;20036;-43
2020/12/31 10:08:47;;;;;;;72.53;38.70;;;17.40;66.10;;;;;;5067263;28;20119;-42
2020/12/31 10:11:15;;;;;;;90.60;47.30;;;17.40;66.10;;;;;;5071072;28;20128;-41
2020/12/31 10:13:41;;;;;;;91.65;47.08;;;17.40;65.70;;;;;;5072949;28;20079;-41
2020/12/31 10:16:06;;;;;;;90.28;47.88;;;17.50;65.60;;;;;;5071021;28;20072;-41
2020/12/31 10:18:32;;;;;;;97.07;50.17;;;17.50;65.60;;;;;;5067296;28;20040;-43
2020/12/31 10:20:57;;;;;;;91.13;45.45;;;17.50;65.50;;;;;;5070563;28;20087;-40
2020/12/31 10:23:23;;;;;;;85.55;46.17;;;17.50;66.30;;;;;;5069763;28;20040;-39
2020/12/31 10:25:52;;;;;;;81.13;41.40;;;17.50;65.40;;;;;;5048876;28;20025;-43
2020/12/31 10:28:19;;;;;;;77.28;41.42;;;17.50;65.30;;;;;;5070005;28;20041;-42
2020/12/31 10:30:45;;;;;;;73.70;38.25;;;17.60;65.30;;;;;;5071911;28;20047;-40
2020/12/31 10:33:10;;;;;;;68.40;34.25;;;17.60;65.20;;;;;;5069955;28;20040;-41
2020/12/31 10:35:36;;;;;;;66.88;36.17;;;17.60;65.20;;;;;;5063505;28;20049;-41
2020/12/31 10:38:01;;;;;;;63.97;34.20;;;17.60;64.90;;;;;;5074896;28;20139;-42
2020/12/31 10:40:27;;;;;;;59.10;32.63;;;17.60;65.00;;;;;;5068584;28;20511;-41
2020/12/31 10:42:52;;;;;;;56.72;30.67;;;17.60;65.10;;;;;;5053150;28;20055;-41
2020/12/31 10:45:18;;;;;;;55.53;30.73;;;17.70;65.60;;;;;;5071481;28;20499;-42
2020/12/31 10:47:43;;;;;;;52.72;28.33;;;17.70;65.70;;;;;;5066782;28;20059;-41
2020/12/31 10:50:09;;;;;;;49.70;27.95;;;17.70;66.00;;;;;;5072864;28;20044;-41
2020/12/31 10:52:35;;;;;;;45.85;25.05;;;17.70;66.30;;;;;;5070639;28;20044;-41
2020/12/31 10:55:00;;;;;;;45.53;25.35;;;17.80;66.40;;;;;;5068065;28;20111;-41
2020/12/31 10:57:26;;;;;;;44.50;23.88;;;17.80;66.50;;;;;;5062951;28;20051;-41
2020/12/31 10:59:52;;;;;;;43.33;22.75;;;17.90;67.20;;;;;;5059053;28;20075;-41
2020/12/31 11:02:17;;;;;;;44.15;23.17;;;17.80;67.60;;;;;;5051303;28;20053;-41
2020/12/31 11:04:43;;;;;;;39.85;19.92;;;17.90;67.60;;;;;;5055457;28;20389;-41
2020/12/31 11:07:09;;;;;;;35.47;19.10;;;17.90;68.10;;;;;;5061497;28;20029;-41
2020/12/31 11:09:35;;;;;;;32.28;16.90;;;17.90;68.40;;;;;;5054836;28;20049;-41
2020/12/31 11:12:01;;;;;;;26.02;15.13;;;17.90;68.40;;;;;;5049496;28;20060;-41
2020/12/31 11:14:26;;;;;;;24.02;15.35;;;17.90;68.60;;;;;;5052640;28;20123;-41
2020/12/31 11:16:53;;;;;;;24.08;14.13;;;17.90;68.70;;;;;;5050487;28;20048;-41
2020/12/31 11:19:19;;;;;;;29.75;15.10;;;17.90;68.20;;;;;;5061724;28;20064;-41
2020/12/31 11:21:45;;;;;;;24.85;15.48;;;17.90;68.00;;;;;;5045704;28;20500;-41
2020/12/31 11:24:10;;;;;;;32.05;14.77;;;17.90;67.60;;;;;;5054556;28;20049;-41
2020/12/31 11:26:36;;;;;;;42.80;22.75;;;17.90;67.60;;;;;;4700594;28;9999681;-42
2020/12/31 11:29:02;;;;;;;40.85;22.17;;;17.90;67.20;;;;;;5049894;28;20495;-41
2020/12/31 11:31:28;;;;;;;37.28;19.63;;;17.90;67.10;;;;;;5052009;28;20418;-42
2020/12/31 11:33:55;;;;;;;34.92;19.23;;;17.90;66.60;;;;;;5063965;28;20041;-41
2020/12/31 11:36:21;;;;;;;37.10;20.35;;;17.80;66.20;;;;;;5061204;28;20041;-41
2020/12/31 11:38:51;;;;;;;33.55;18.55;;;17.90;66.40;;;;;;5064942;28;20041;-42
2020/12/31 11:41:16;;;;;;;28.65;17.33;;;17.80;66.60;;;;;;5083782;28;20079;-41
2020/12/31 11:43:42;;;;;;;43.17;18.88;;;17.80;67.00;;;;;;5071405;28;20472;-42
2020/12/31 11:46:07;;;;;;;37.45;16.92;;;17.80;67.00;;;;;;5064804;28;20048;-42
2020/12/31 11:48:33;;;;;;;29.13;15.48;;;17.80;66.50;;;;;;5064052;28;20028;-41
2020/12/31 11:51:03;;;;;;;25.17;14.93;;;17.80;66.70;;;;;;5068995;28;20059;-42
2020/12/31 11:53:28;;;;;;;34.50;16.33;;;17.80;66.80;;;;;;5069088;28;20403;-42
2020/12/31 11:55:54;;;;;;;28.35;14.60;;;17.80;67.10;;;;;;5070053;28;20484;-41
2020/12/31 11:58:19;;;;;;;30.45;15.90;;;17.80;67.20;;;;;;5069408;28;20032;-43
2020/12/31 12:00:45;;;;;;;28.08;15.20;;;17.80;67.20;;;;;;5066361;28;20438;-43
2020/12/31 12:03:11;;;;;;;23.77;14.20;;;17.70;67.10;;;;;;5056654;28;20060;-41
2020/12/31 12:05:36;;;;;;;29.85;13.70;;;17.70;67.00;;;;;;5057527;28;20025;-41
2020/12/31 12:08:03;;;;;;;30.20;14.45;;;17.70;66.60;;;;;;5053847;28;20169;-42
2020/12/31 12:10:29;;;;;;;28.40;12.95;;;17.70;66.70;;;;;;5075919;28;20032;-42
2020/12/31 12:12:54;;;;;;;24.70;12.82;;;17.70;66.80;;;;;;5067028;28;20032;-62
2020/12/31 12:15:20;;;;;;;25.88;12.88;;;17.80;66.70;;;;;;5066997;28;20662;-59
2020/12/31 12:17:49;;;;;;;20.67;13.02;;;17.90;66.50;;;;;;5050821;28;20028;-61
2020/12/31 12:20:15;;;;;;;22.58;12.57;;;17.90;66.40;;;;;;5057741;28;20033;-61
2020/12/31 12:22:40;;;;;;;25.45;11.73;;;17.90;66.40;;;;;;5053387;28;20475;-65
2020/12/31 12:25:06;;;;;;;25.80;11.48;;;18.00;66.40;;;;;;5060720;28;20029;-59
2020/12/31 12:27:33;;;;;;;20.48;11.38;;;18.00;66.40;;;;;;5056854;28;20040;-59
2020/12/31 12:29:59;;;;;;;25.33;11.35;;;18.00;66.40;;;;;;5059061;28;20479;-54
2020/12/31 12:32:24;;;;;;;21.35;10.88;;;18.00;66.40;;;;;;5057965;28;20037;-50
2020/12/31 12:34:50;;;;;;;17.05;10.43;;;17.90;66.40;;;;;;5061398;28;20610;-44
2020/12/31 12:37:15;;;;;;;20.83;10.02;;;17.90;66.50;;;;;;5059109;28;20408;-43
2020/12/31 12:39:41;;;;;;;22.90;10.07;;;17.90;66.60;;;;;;5061385;28;20033;-43
2020/12/31 12:42:06;;;;;;;16.85;9.02;;;17.90;66.70;;;;;;5069162;28;20079;-43
2020/12/31 12:44:32;;;;;;;16.92;9.68;;;17.90;66.70;;;;;;5068405;28;20519;-44
2020/12/31 12:46:57;;;;;;;15.05;9.38;;;17.90;66.60;;;;;;5071537;28;20116;-44
2020/12/31 12:49:23;;;;;;;17.95;9.65;;;17.90;66.70;;;;;;5074433;28;20043;-45
2020/12/31 12:51:49;;;;;;;17.50;9.95;;;17.90;66.60;;;;;;5065910;28;20025;-46
2020/12/31 12:54:14;;;;;;;17.65;9.68;;;17.90;67.60;;;;;;5068307;28;20024;-45
2020/12/31 12:56:40;;;;;;;14.63;9.88;;;17.90;66.70;;;;;;5072927;28;20598;-44
2020/12/31 12:59:06;;;;;;;13.77;9.27;;;17.90;66.90;;;;;;5073715;28;20039;-47
2020/12/31 13:01:31;;;;;;;12.80;8.85;;;17.90;67.70;;;;;;5061685;28;20419;-45
2020/12/31 13:03:57;;;;;;;16.13;8.07;;;17.90;66.90;;;;;;5059260;28;20025;-45
2020/12/31 13:06:22;;;;;;;13.55;8.40;;;17.90;67.10;;;;;;5064860;28;20484;-43
2020/12/31 13:08:48;;;;;;;17.40;8.90;;;17.90;67.10;;;;;;5059573;28;20028;-46
2020/12/31 13:11:19;;;;;;;17.83;7.78;;;17.90;67.20;;;;;;5065923;28;20020;-44
2020/12/31 13:13:44;;;;;;;15.45;7.75;;;18.00;67.40;;;;;;5075984;28;20490;-44
2020/12/31 13:16:10;;;;;;;16.75;7.95;;;18.00;67.50;;;;;;5063348;28;20104;-45
2020/12/31 13:18:36;;;;;;;15.70;7.25;;;18.00;67.50;;;;;;5062361;28;20020;-44
2020/12/31 13:21:01;;;;;;;13.77;7.57;;;18.00;67.50;;;;;;5066594;28;20345;-45
2020/12/31 13:23:27;;;;;;;13.68;6.38;;;18.00;67.50;;;;;;5059638;28;20161;-45
2020/12/31 13:25:56;;;;;;;9.57;7.03;;;18.00;67.40;;;;;;5057561;28;20125;-45
2020/12/31 13:28:22;;;;;;;15.75;7.63;;;18.00;67.20;;;;;;5061698;28;20040;-50
2020/12/31 13:30:48;;;;;;;19.50;7.20;;;18.00;67.30;;;;;;5064702;28;20023;-48
2020/12/31 13:33:14;;;;;;;14.25;6.95;;;18.00;67.30;;;;;;5065584;28;20499;-57
2020/12/31 13:35:42;;;;;;;15.02;7.82;;;18.00;67.10;;;;;;5062414;28;20039;-60
2020/12/31 13:38:11;;;;;;;14.18;7.32;;;18.00;67.20;;;;;;5061639;28;20032;-60
2020/12/31 13:40:36;;;;;;;13.90;6.75;;;18.00;67.20;;;;;;4712633;28;10000213;-57
2020/12/31 13:43:02;;;;;;;10.68;5.53;;;17.90;67.30;;;;;;5057970;28;20049;-61
2020/12/31 13:45:28;;;;;;;14.13;6.53;;;18.00;67.20;;;;;;5063258;28;20041;-61
2020/12/31 13:47:53;;;;;;;10.05;6.20;;;18.00;67.30;;;;;;5057861;28;20090;-58
2020/12/31 13:50:19;;;;;;;12.43;5.70;;;18.00;67.20;;;;;;5056383;28;20051;-56
2020/12/31 13:52:44;;;;;;;8.98;5.40;;;18.00;67.20;;;;;;5057477;28;20093;-60
2020/12/31 13:55:11;;;;;;;11.65;5.50;;;18.00;67.20;;;;;;5062674;28;20029;-57
2020/12/31 13:57:36;;;;;;;13.60;5.88;;;18.00;67.10;;;;;;5060966;28;20167;-60
2020/12/31 14:00:08;;;;;;;10.57;6.13;;;18.00;67.10;;;;;;5058056;28;20474;-55
2020/12/31 14:02:34;;;;;;;9.18;5.93;;;18.00;67.10;;;;;;5058954;28;20068;-49
2020/12/31 14:05:00;;;;;;;10.07;5.60;;;17.90;67.10;;;;;;5056995;28;20115;-58
2020/12/31 14:07:25;;;;;;;10.15;5.35;;;18.00;67.20;;;;;;5058744;28;20789;-59
2020/12/31 14:09:51;;;;;;;8.95;5.60;;;18.00;67.10;;;;;;5054825;28;20112;-56
2020/12/31 14:12:17;;;;;;;9.55;5.20;;;18.00;67.10;;;;;;5057895;28;20087;-56
2020/12/31 14:14:43;;;;;;;11.20;5.18;;;18.00;67.10;;;;;;5055899;28;20063;-54
2020/12/31 14:17:08;;;;;;;8.48;4.97;;;18.00;67.20;;;;;;5060232;28;20051;-54
2020/12/31 14:19:34;;;;;;;5.07;4.35;;;17.90;67.00;;;;;;5055752;28;20036;-61
2020/12/31 14:22:04;;;;;;;5.03;4.63;;;17.90;67.00;;;;;;5061315;28;20028;-52
2020/12/31 14:24:30;;;;;;;6.32;4.57;;;17.90;67.00;;;;;;5054475;28;20174;-57
2020/12/31 14:26:56;;;;;;;5.35;4.50;;;18.00;67.10;;;;;;5054556;28;20092;-59
2020/12/31 14:29:21;;;;;;;6.65;4.60;;;18.00;67.10;;;;;;5060690;28;20111;-54
2020/12/31 14:31:47;;;;;;;4.57;4.18;;;18.00;67.10;;;;;;5056268;28;20563;-62
2020/12/31 14:34:12;;;;;;;5.60;4.40;;;18.00;67.10;;;;;;5061587;28;20043;-56
2020/12/31 14:36:41;;;;;;;8.75;5.10;;;18.00;67.10;;;;;;5062627;28;20025;-60
2020/12/31 14:39:07;;;;;;;11.60;7.65;;;18.00;67.00;;;;;;5062317;28;20025;-60
2020/12/31 14:41:37;;;;;;;11.82;8.80;;;18.00;66.90;;;;;;5056772;28;20029;-59
2020/12/31 14:44:04;;;;;;;17.50;9.57;;;18.00;67.00;;;;;;5059063;28;20033;-60
2020/12/31 14:46:30;;;;;;;13.85;8.43;;;18.00;67.00;;;;;;5059507;28;20067;-56
2020/12/31 14:48:56;;;;;;;13.43;8.35;;;18.00;67.00;;;;;;5062832;28;20093;-60
2020/12/31 14:51:28;;;;;;;7.80;5.55;;;18.00;67.00;;;;;;5061944;28;20032;-60
2020/12/31 14:53:54;;;;;;;10.43;6.30;;;18.00;66.80;;;;;;5060774;28;20096;-60
2020/12/31 14:56:20;;;;;;;10.75;7.03;;;18.00;67.30;;;;;;5059613;28;20571;-61
2020/12/31 14:58:45;;;;;;;6.55;5.93;;;18.00;66.80;;;;;;5061430;28;20029;-62
2020/12/31 15:01:16;;;;;;;10.02;7.85;;;18.00;66.80;;;;;;5060134;28;20112;-47
2020/12/31 15:03:41;;;;;;;10.98;7.70;;;18.00;66.90;;;;;;4705196;28;10000661;-57
2020/12/31 15:06:07;;;;;;;10.45;7.72;;;18.00;67.00;;;;;;5058862;28;20029;-61
2020/12/31 15:08:32;;;;;;;9.27;7.22;;;17.90;66.90;;;;;;5055476;28;20143;-56
2020/12/31 15:10:58;;;;;;;10.57;7.03;;;17.90;67.00;;;;;;5057414;28;20025;-59
2020/12/31 15:13:23;;;;;;;10.57;7.55;;;18.00;67.00;;;;;;5056818;28;20039;-56
2020/12/31 15:15:49;;;;;;;8.57;6.60;;;18.00;67.00;;;;;;5056182;28;20032;-56
2020/12/31 15:18:15;;;;;;;10.75;7.28;;;18.00;66.80;;;;;;5059050;28;20423;-55
2020/12/31 15:20:44;;;;;;;6.55;5.80;;;18.00;66.90;;;;;;5053198;28;20036;-56
2020/12/31 15:23:10;;;;;;;6.63;6.03;;;18.00;67.50;;;;;;5059934;28;20044;-61
2020/12/31 15:25:35;;;;;;;7.50;6.10;;;18.00;66.50;;;;;;5053790;28;20034;-60
2020/12/31 15:28:01;;;;;;;7.43;5.65;;;18.00;66.50;;;;;;5059748;28;20048;-59
2020/12/31 15:30:27;;;;;;;5.40;4.82;;;18.00;66.30;;;;;;5055481;28;20459;-55
2020/12/31 15:32:52;;;;;;;8.70;5.40;;;18.00;66.30;;;;;;5060307;28;20559;-60
2020/12/31 15:35:18;;;;;;;6.53;5.82;;;18.00;66.40;;;;;;5060578;28;20085;-55
2020/12/31 15:37:43;;;;;;;5.38;4.90;;;18.00;66.40;;;;;;5054395;28;20055;-61
2020/12/31 15:40:09;;;;;;;7.38;5.18;;;18.00;66.30;;;;;;5052142;28;20078;-59
2020/12/31 15:42:35;;;;;;;10.10;5.57;;;18.00;66.10;;;;;;5056421;28;20610;-56
2020/12/31 15:45:00;;;;;;;6.93;5.40;;;18.00;66.30;;;;;;5055194;28;20025;-62
2020/12/31 15:47:26;;;;;;;7.30;5.43;;;18.00;66.50;;;;;;5054100;28;20055;-60
2020/12/31 15:49:52;;;;;;;7.75;4.88;;;18.00;66.40;;;;;;5055779;28;20029;-56
2020/12/31 15:52:17;;;;;;;5.22;4.72;;;18.00;66.40;;;;;;5059487;28;20047;-52
2020/12/31 15:54:43;;;;;;;8.15;4.78;;;18.00;66.30;;;;;;5058040;28;20021;-59
2020/12/31 15:57:09;;;;;;;8.70;5.45;;;18.00;66.30;;;;;;5058828;28;20043;-57
2020/12/31 15:59:34;;;;;;;5.70;5.25;;;18.00;66.40;;;;;;5057897;28;20039;-61
2020/12/31 16:02:02;;;;;;;6.35;5.47;;;18.00;66.60;;;;;;5058064;28;20128;-62
2020/12/31 16:04:27;;;;;;;5.35;4.93;;;18.00;66.70;;;;;;5057910;28;20024;-58
2020/12/31 16:06:53;;;;;;;6.40;4.82;;;18.00;66.90;;;;;;5061009;28;20039;-55
2020/12/31 16:09:19;;;;;;;5.72;4.88;;;18.00;66.90;;;;;;5060653;28;20041;-47
2020/12/31 16:11:44;;;;;;;6.72;5.78;;;18.00;66.80;;;;;;5062710;28;20029;-59
2020/12/31 16:14:10;;;;;;;5.90;4.93;;;18.00;66.80;;;;;;5058894;28;20037;-57
2020/12/31 16:16:35;;;;;;;8.27;4.82;;;18.10;67.90;;;;;;5057950;28;20029;-53
2020/12/31 16:19:01;;;;;;;4.72;4.32;;;18.10;66.90;;;;;;5057263;28;20180;-53
2020/12/31 16:21:26;;;;;;;5.78;5.18;;;18.10;66.90;;;;;;5057012;28;20055;-52
2020/12/31 16:23:52;;;;;;;5.75;5.18;;;18.10;66.90;;;;;;5057886;28;20066;-58
2020/12/31 16:26:18;;;;;;;5.55;5.03;;;18.10;67.10;;;;;;5057329;28;20029;-60
2020/12/31 16:28:44;;;;;;;6.63;4.97;;;18.10;67.00;;;;;;5063658;28;20127;-59
2020/12/31 16:31:10;;;;;;;5.78;4.22;;;18.10;67.10;;;;;;5054102;28;20029;-54
2020/12/31 16:33:36;;;;;;;4.97;4.55;;;18.10;66.90;;;;;;5058629;28;20323;-59
2020/12/31 16:36:04;;;;;;;5.10;4.60;;;18.10;67.00;;;;;;5063349;28;20516;-55
2020/12/31 16:38:29;;;;;;;5.05;4.10;;;18.10;67.10;;;;;;5065102;28;20156;-61
2020/12/31 16:40:55;;;;;;;5.35;4.30;;;18.10;67.10;;;;;;5065675;28;20115;-61
2020/12/31 16:43:21;;;;;;;12.25;4.88;;;18.20;67.10;;;;;;5059513;28;20048;-59
2020/12/31 16:45:46;;;;;;;4.43;4.00;;;18.20;66.90;;;;;;5065975;28;20091;-50
2020/12/31 16:48:12;;;;;;;4.10;3.80;;;18.20;66.70;;;;;;5064724;28;20028;-59
2020/12/31 16:53:25;;;;;;;7.45;3.72;;;18.20;66.10;;;;;;5083499;28;20359;-62
